Orsola Bottiglieri — ICQN — position and weather

sailwx.info

Track history (hours):
 
Tides and Currents Weather Stations Pressure Air Temp Water Temp Dewpoint Dewpoint Depression Visibility Wind Speed Wind Dir Waves Ship Positions

Orsola Bottiglieri

Last reported at 2016-Apr-29 02:18 UTC. Time now 2016-Apr-29 10:08 UTC.
Position N 29°56' E 121°53'.

Length 292 m; draft 18.4 m.

Type: Cargo ship. MMSI: 247304400.

Date/timePositionNaut miles runAvg speedWind from/ knotsBaromVisibWave heightAir tempDewpointWater temp
2016-Apr-29 02:18N 29°56' E 121°53'2 2.0
2016-Apr-29 01:32N 29°57' E 121°55'7 7.4
2016-Apr-29 00:33N 29°55' E 122°03'8 7.9
2016-Apr-28 23:33N 29°53' E 122°12'8 8.2
2016-Apr-28 22:33N 29°46' E 122°18'6 5.8
2016-Apr-28 21:33N 29°43' E 122°23'5 5.2
2016-Apr-28 20:33N 29°42' E 122°29'5 5.0
2016-Apr-28 19:33N 29°42' E 122°35'  
2016-Apr-20 04:33N 01°15' E 104°01'5 3.9
2016-Apr-20 03:23N 01°16' E 103°57'0 0.0
2016-Apr-20 02:26N 01°16' E 103°57'0 0.0
2016-Apr-20 01:14N 01°16' E 103°57'0 0.1
2016-Apr-19 21:26N 01°16' E 103°57'0 0.0
2016-Apr-19 14:17N 01°16' E 103°57'0 0.0
2016-Apr-19 10:32N 01°16' E 103°57'0 0.0
2016-Apr-19 09:14N 01°16' E 103°57'0 0.2
2016-Apr-19 08:23N 01°16' E 103°57'0 0.1
2016-Apr-19 07:05N 01°16' E 103°57'1 1.2
2016-Apr-19 06:33N 01°16' E 103°57'4 3.8
2016-Apr-19 05:33N 01°13' E 103°54'6 5.6
2016-Apr-19 04:33N 01°11' E 103°49'6 6.0
2016-Apr-19 03:33N 01°07' E 103°45'6 5.4
2016-Apr-19 02:32N 01°04' E 103°40'  
Track history (hours):
 
Tides and Currents Weather Stations Pressure Air Temp Water Temp Dewpoint Dewpoint Depression Visibility Wind Speed Wind Dir Waves Ship Positions

Orsola Bottiglieri

Last reported at 2016-Apr-29 02:18 UTC. Time now 2016-Apr-29 10:08 UTC.
Position N 29°56' E 121°53'.

Length 292 m; draft 18.4 m.

Type: Cargo ship. MMSI: 247304400.

Date/timePositionNaut miles runAvg speedWind from/ knotsBaromVisibWave heightAir tempDewpointWater temp
2016-Apr-29 02:18N 29°56' E 121°53'2 2.0
2016-Apr-29 01:32N 29°57' E 121°55'7 7.4
2016-Apr-29 00:33N 29°55' E 122°03'8 7.9
2016-Apr-28 23:33N 29°53' E 122°12'8 8.2
2016-Apr-28 22:33N 29°46' E 122°18'6 5.8
2016-Apr-28 21:33N 29°43' E 122°23'5 5.2
2016-Apr-28 20:33N 29°42' E 122°29'5 5.0
2016-Apr-28 19:33N 29°42' E 122°35'  
2016-Apr-20 04:33N 01°15' E 104°01'5 3.9
2016-Apr-20 03:23N 01°16' E 103°57'0 0.0
2016-Apr-20 02:26N 01°16' E 103°57'0 0.0
2016-Apr-20 01:14N 01°16' E 103°57'0 0.1
2016-Apr-19 21:26N 01°16' E 103°57'0 0.0
2016-Apr-19 14:17N 01°16' E 103°57'0 0.0
2016-Apr-19 10:32N 01°16' E 103°57'0 0.0
2016-Apr-19 09:14N 01°16' E 103°57'0 0.2
2016-Apr-19 08:23N 01°16' E 103°57'0 0.1
2016-Apr-19 07:05N 01°16' E 103°57'1 1.2
2016-Apr-19 06:33N 01°16' E 103°57'4 3.8
2016-Apr-19 05:33N 01°13' E 103°54'6 5.6
2016-Apr-19 04:33N 01°11' E 103°49'6 6.0
2016-Apr-19 03:33N 01°07' E 103°45'6 5.4
2016-Apr-19 02:32N 01°04' E 103°40'  

Dump ship's entire track history